Claremont, CA (91711)

5:56 PM PDT on September 19, 2014 (GMT -0700)
Claremont North of Baseline | Change Station
CLOSE
Current Station
Personal Weather Station
Location: Claremont, CA
Elevation: 1531 ft
Nearby Weather Stations

Elev 1531 ft 34.13 °N, 117.71 °W | Updated 6 minutes ago

Clear
Clear
78.4 °F
Feels Like 80 °F
N
0.0
Wind Variable Wind from WSW
Gusts 0.0 mph

Today
High -- | Low -- °F
--% Chance of Precip.
Yesterday
High -- | Low -- °F
Precip. -- in
6:36 AM 6:51 PM
Waning Crescent, 16% visible
Pressure 29.78 in
Visibility 10.0 miles
Clouds Few 5500 ft
Heat Index 80 °F
Dew Point 61 °F
Humidity 56%
Rainfall 0.00 in
Snow Depth 0 in , 0 in , 0 in
UV 1 out of 12
Pollen 6.90 out of 12
Ozone Good
Flu Activity Not available.
METAR KONT 200053Z 23012KT 10SM FEW055 27/15 A2983 RMK AO2 SLP084 T02670150

More Conditions Fewer Conditions

Pressure 29.78 in
Visibility 10.0 miles
Clouds Few 5500 ft
Heat Index 80 °F
Dew Point 61 °F
Humidity 56%
Rainfall 0.00 in
Snow Depth 0 in , 0 in , 0 in
UV 1 out of 12
Pollen 6.90 out of 12
Ozone Good
Flu Activity Not available.
METAR KONT 200053Z 23012KT 10SM FEW055 27/15 A2983 RMK AO2 SLP084 T02670150

More Conditions Fewer Conditions

10-Day Weather Forecast

Almanac

Astronomy

Sep. 19, 2014 Rise Set
Actual Time 6:36 AM PDT 6:51 PM PDT
Civil Twilight 6:11 AM PDT 7:16 PM PDT
Nautical Twilight 5:42 AM PDT 7:45 PM PDT
Astronomical Twilight 5:12 AM PDT 8:15 PM PDT
Moon 2:35 AM PDT (9/19) 4:15 PM PDT (9/19)
Length of Visible Light 13h 04m
Length of Day
12h 14m
Tomorrow will be 2m 7s shorter.
Waning Crescent, 16% of the Moon is Illuminated
Today
Waning Crescent
Sep 24
New
Oct 1
First Quarter
Oct 8
Full
Oct 15
Last Quarter

Today's Extremes

State Highs State Lows

Community

WunderPhotos

Upload Photos

1,754,744 photos uploaded!

WunderBlogs® & News

Nearby

Air Quality

  Air Quality AQ Index Pollutant
Yesterday Good
OZONE
Current Good
OZONE
Saturday Good
PM10
Saturday Good
OZONE
Saturday Good
CO
Saturday Good
NO2

Snow Depth

Station Depth Elevation
Ward Creek #3 0 in 6750 ft
Spratt Creek 0 in 6200 ft
Rubicon #2 0 in 7500 ft
Leavitt Lake 0 in 9400 ft
Burnside Lake 0 in 8139 ft

Earthquake Activity

City Distance Mag. Time & Date
Inyokern, California 134 miles 3.1 5:33 PM PDT
2014-09-19
Aguanga, California 69 miles 2.5 1:38 AM PDT
2014-09-19
Corcoran, California 174 miles 3.0 3:59 PM PDT
2014-09-18
Minimum magnitude displayed is 2.5.

Coastal Water Temperatures

Place Temperature
No Stations Reporting

Nearby Weather Stations